Malta International Airport (MLA/LMML)


Airport Information
Location: Malta,
Coordinates: 35.8575 / 14.4775
Field Elevation: 297ft
Longest Runway: 11,018ft
ILS Approaches: YES
Landing Fees: $2,730 per flight
Jet A Price: $0.53/lbs

Current Weather
METAR: LMML 011015Z 02013KT 9999 SCT012 27/23 Q1018 NOSIG
TAF: TAF LMML 010500Z 0106/0206 04014KT 9000 SCT008 BKN012 BECMG 0108/0111 33014KT 9999 FEW016 BECMG 0113/0116 33020G30KT BECMG 0202/0205 33017KT

No chart available
Flight Arriving
CPX571 EDDK - Cologne Bonn Airport
Germany Cologne, Germany
Flight Aircraft Departing
CPX550
EDDK - Cologne Bonn Airport
Germany Cologne, Germany



Recent Arrivals
Date Flight Type Depart
08/09/2022 CPX550 A30F Cologne Bonn Airport (EDDK)
07/05/2022 CPX952 A30F Cologne Bonn Airport (EDDK)
02/28/2022 CPX952 A30F Cologne Bonn Airport (EDDK)
10/29/2021 CPX928 A30F Cologne Bonn Airport (EDDK)
10/12/2021 CPX928 B738 Cologne Bonn Airport (EDDK)
09/14/2021 CPX928 B738 Cologne Bonn Airport (EDDK)
Recent Departures
Date Flight Type Arrive
08/14/2022 CPX571 A30F Cologne Bonn Airport (EDDK)
07/18/2022 CPX571 A30F Cologne Bonn Airport (EDDK)
03/05/2022 CPX953 A30F Cologne Bonn Airport (EDDK)
10/31/2021 CPX929 A30F Cologne Bonn Airport (EDDK)
10/13/2021 CPX929 B738 Cologne Bonn Airport (EDDK)
09/15/2021 CPX929 B738 Cologne Bonn Airport (EDDK)